Time;durP1;ratioP1;P1;durP2;ratioP2;P2;SDS_P1;SDS_P2;PMS_P1;PMS_P2;Temp;Humidity;BMP_temperature;BMP_pressure;BME280_temperature;BME280_humidity;BME280_pressure;Samples;Min_cycle;Max_cycle;Signal;HPM_P1;HPM_P2
2023/01/14 00:01:50;;;;;;;12.90;6.67;;;6.10;86.50;;;;;;5024477;28;20180;-68
2023/01/14 00:04:16;;;;;;;15.73;8.13;;;6.20;86.60;;;;;;5024133;28;20262;-67
2023/01/14 00:06:42;;;;;;;10.50;6.27;;;6.20;86.50;;;;;;5025115;28;20220;-71
2023/01/14 00:09:11;;;;;;;12.20;7.90;;;6.20;86.50;;;;;;5023532;28;20982;-70
2023/01/14 00:11:46;;;;;;;9.80;6.53;;;6.20;86.40;;;;;;5023596;28;20184;-70
2023/01/14 00:14:15;;;;;;;13.60;7.20;;;6.30;86.50;;;;;;5017075;28;20183;-70
2023/01/14 00:16:41;;;;;;;9.93;6.10;;;6.30;86.50;;;;;;5018180;28;20200;-70
2023/01/14 00:19:07;;;;;;;15.10;7.70;;;6.30;86.60;;;;;;5021864;28;20187;-70
2023/01/14 00:21:33;;;;;;;11.37;6.50;;;6.30;86.50;;;;;;5025402;28;20226;-70
2023/01/14 00:23:58;;;;;;;9.73;6.57;;;6.40;86.60;;;;;;5040536;28;20682;-70
2023/01/14 00:26:27;;;;;;;8.13;6.23;;;6.40;86.80;;;;;;5034045;28;20316;-70
2023/01/14 00:28:53;;;;;;;9.10;6.67;;;6.40;86.60;;;;;;5034710;28;20188;-70
2023/01/14 00:31:25;;;;;;;14.43;7.13;;;6.40;86.70;;;;;;5027116;28;20274;-70
2023/01/14 00:33:51;;;;;;;13.40;7.50;;;6.40;86.40;;;;;;5026359;28;20200;-70
2023/01/14 00:36:19;;;;;;;13.83;6.83;;;6.30;86.40;;;;;;5026612;28;20538;-70
2023/01/14 00:38:44;;;;;;;11.20;6.70;;;6.30;86.30;;;;;;5026052;28;20530;-70
2023/01/14 00:41:13;;;;;;;9.00;6.33;;;6.30;86.60;;;;;;5029953;28;20184;-70
2023/01/14 00:43:41;;;;;;;10.10;6.97;;;6.30;86.40;;;;;;5030799;28;20207;-69
2023/01/14 00:46:10;;;;;;;14.10;7.30;;;6.30;86.30;;;;;;5028702;28;20212;-70
2023/01/14 00:48:36;;;;;;;11.40;6.57;;;6.30;86.40;;;;;;5029829;28;20191;-69
2023/01/14 00:51:03;;;;;;;11.23;6.50;;;6.30;86.50;;;;;;5032510;28;20192;-70
2023/01/14 00:53:29;;;;;;;10.47;6.10;;;6.20;86.60;;;;;;5033214;28;20184;-69
2023/01/14 00:55:55;;;;;;;10.83;7.10;;;6.20;86.50;;;;;;5027904;28;20173;-70
2023/01/14 00:58:21;;;;;;;9.70;6.33;;;6.20;86.50;;;;;;5027255;28;20576;-69
2023/01/14 01:00:47;;;;;;;15.00;7.30;;;6.20;86.50;;;;;;5027217;28;20189;-70
2023/01/14 01:03:14;;;;;;;9.70;6.70;;;6.20;86.80;;;;;;5026695;28;20319;-70
2023/01/14 01:05:40;;;;;;;14.20;7.00;;;6.20;86.60;;;;;;5027115;28;20216;-70
2023/01/14 01:08:09;;;;;;;7.30;6.20;;;6.20;86.70;;;;;;5027349;28;20182;-70
2023/01/14 01:10:35;;;;;;;12.53;7.27;;;6.30;86.70;;;;;;5017257;28;20863;-70
2023/01/14 01:13:02;;;;;;;12.00;6.93;;;6.30;86.90;;;;;;5026255;28;20188;-70
2023/01/14 01:15:28;;;;;;;12.90;7.10;;;6.30;86.80;;;;;;5027060;28;20191;-70
2023/01/14 01:17:53;;;;;;;9.63;5.90;;;6.30;86.90;;;;;;5022839;28;20177;-71
2023/01/14 01:20:19;;;;;;;10.67;5.63;;;6.30;86.80;;;;;;5035784;28;20362;-70
2023/01/14 01:22:44;;;;;;;9.53;6.07;;;6.30;86.90;;;;;;5025988;28;20199;-70
2023/01/14 01:25:10;;;;;;;11.73;6.50;;;6.30;86.80;;;;;;5032148;28;20212;-70
2023/01/14 01:27:36;;;;;;;11.00;6.33;;;6.30;86.90;;;;;;5025944;28;20180;-70
2023/01/14 01:30:01;;;;;;;11.10;6.13;;;6.30;86.80;;;;;;5033140;28;20184;-70
2023/01/14 01:32:27;;;;;;;11.60;6.50;;;6.30;86.70;;;;;;5026362;28;20185;-70
2023/01/14 01:34:53;;;;;;;15.10;7.20;;;6.30;86.70;;;;;;5025840;28;20182;-70
2023/01/14 01:37:18;;;;;;;10.10;6.30;;;6.30;86.60;;;;;;5029859;28;20184;-70
2023/01/14 01:39:45;;;;;;;9.57;6.57;;;6.30;86.60;;;;;;5028161;28;20318;-69
2023/01/14 01:42:13;;;;;;;10.57;6.10;;;6.20;86.40;;;;;;5032645;28;20200;-70
2023/01/14 01:44:42;;;;;;;11.97;6.73;;;6.20;86.30;;;;;;5027055;28;20203;-70
2023/01/14 01:47:08;;;;;;;19.43;7.57;;;6.20;86.40;;;;;;5030224;28;20222;-70
2023/01/14 01:49:36;;;;;;;9.03;6.87;;;6.10;86.40;;;;;;5026353;28;20242;-70
2023/01/14 01:52:04;;;;;;;10.33;5.90;;;6.10;86.30;;;;;;5025253;28;20237;-69
2023/01/14 01:54:37;;;;;;;11.27;6.90;;;6.10;86.30;;;;;;5039681;28;20242;-69
2023/01/14 01:57:08;;;;;;;11.87;6.27;;;6.00;86.20;;;;;;5038338;28;20172;-70
2023/01/14 01:59:37;;;;;;;11.13;6.07;;;6.00;86.20;;;;;;5025655;28;20272;-70
2023/01/14 02:02:04;;;;;;;8.20;6.00;;;5.90;86.20;;;;;;5030964;28;20259;-70
2023/01/14 02:04:30;;;;;;;11.70;6.67;;;5.90;86.30;;;;;;5026424;28;20189;-69
2023/01/14 02:06:55;;;;;;;13.60;8.10;;;5.90;86.40;;;;;;5024929;28;20188;-70
2023/01/14 02:09:21;;;;;;;7.57;5.83;;;5.90;86.50;;;;;;5027996;28;20184;-70
2023/01/14 02:11:53;;;;;;;10.40;7.80;;;5.80;86.80;;;;;;5027436;28;20180;-69
2023/01/14 02:14:57;;;;;;;15.63;8.10;;;5.80;87.00;;;;;;5032833;28;20327;-70
2023/01/14 02:17:28;;;;;;;13.13;7.50;;;5.80;86.90;;;;;;5034269;28;20188;-70
2023/01/14 02:20:21;;;;;;;15.33;7.43;;;5.70;87.50;;;;;;5043826;28;20669;-70
2023/01/14 02:23:21;;;;;;;15.23;8.90;;;5.70;87.50;;;;;;5025798;28;20211;-70
2023/01/14 02:26:16;;;;;;;21.10;7.87;;;5.70;87.60;;;;;;5042560;28;20844;-69
2023/01/14 02:29:18;;;;;;;12.07;7.93;;;5.60;87.80;;;;;;5039331;28;20719;-69
2023/01/14 02:31:55;;;;;;;13.67;7.70;;;5.60;87.70;;;;;;5038959;28;20966;-69
2023/01/14 02:34:29;;;;;;;13.10;7.87;;;5.60;87.90;;;;;;5028287;28;20204;-69
2023/01/14 02:37:32;;;;;;;14.80;8.00;;;5.60;88.00;;;;;;5027523;28;20187;-70
2023/01/14 02:40:01;;;;;;;17.17;8.23;;;5.60;87.70;;;;;;4963928;28;20202;-69
2023/01/14 02:45:23;;;;;;;14.30;7.27;;;5.60;88.10;;;;;;4964215;28;20658;-69
2023/01/14 02:47:51;;;;;;;11.47;7.97;;;5.60;87.90;;;;;;4962920;28;20186;-70
2023/01/14 02:50:18;;;;;;;18.93;8.50;;;5.60;87.90;;;;;;4959882;28;20244;-69
2023/01/14 02:52:45;;;;;;;12.47;7.30;;;5.60;87.90;;;;;;4963477;28;20194;-69
2023/01/14 02:55:33;;;;;;;12.73;7.23;;;5.60;88.00;;;;;;4948702;28;20675;-69
2023/01/14 02:58:14;;;;;;;10.43;6.63;;;5.60;87.80;;;;;;4944828;29;20234;-70
2023/01/14 03:01:06;;;;;;;9.03;6.07;;;5.70;87.80;;;;;;4944723;29;20187;-70
2023/01/14 03:04:01;;;;;;;8.10;7.07;;;5.70;87.90;;;;;;4944470;29;20234;-69
2023/01/14 03:06:49;;;;;;;10.57;5.90;;;5.60;88.10;;;;;;4981863;28;20229;-69
2023/01/14 03:09:24;;;;;;;7.90;6.13;;;5.50;88.10;;;;;;4983166;28;20227;-71
2023/01/14 03:12:02;;;;;;;8.63;6.47;;;5.50;88.30;;;;;;4982397;28;20201;-69
2023/01/14 03:14:37;;;;;;;8.87;5.27;;;5.60;88.20;;;;;;4983381;28;20193;-69
2023/01/14 03:17:24;;;;;;;10.20;6.57;;;5.60;88.10;;;;;;4994486;28;20283;-69
2023/01/14 03:20:10;;;;;;;8.40;5.70;;;5.60;88.30;;;;;;5005552;28;20353;-69
2023/01/14 03:22:39;;;;;;;9.13;6.13;;;5.50;88.40;;;;;;5022105;28;20192;-69
2023/01/14 03:25:06;;;;;;;9.57;6.03;;;5.50;88.60;;;;;;5020920;28;20628;-69
2023/01/14 03:27:36;;;;;;;9.63;6.17;;;5.50;88.50;;;;;;5021089;28;20203;-69
2023/01/14 03:30:10;;;;;;;7.27;5.50;;;5.60;88.50;;;;;;5021875;28;20250;-69
2023/01/14 03:32:43;;;;;;;9.53;6.13;;;5.60;88.20;;;;;;5020053;28;20188;-69
2023/01/14 03:35:14;;;;;;;9.47;6.83;;;5.60;88.20;;;;;;5004499;28;20184;-69
2023/01/14 03:37:47;;;;;;;6.43;5.03;;;5.70;88.10;;;;;;5004278;28;20212;-71
2023/01/14 03:40:16;;;;;;;8.43;5.10;;;5.70;88.10;;;;;;5021349;28;20639;-69
2023/01/14 03:42:47;;;;;;;6.77;5.27;;;5.80;88.00;;;;;;5019861;28;20695;-69
2023/01/14 03:45:26;;;;;;;5.50;4.77;;;5.80;87.80;;;;;;5026713;28;20224;-69
2023/01/14 03:47:52;;;;;;;9.50;4.87;;;5.80;87.70;;;;;;5023854;28;20192;-71
2023/01/14 03:50:19;;;;;;;9.43;5.27;;;5.80;87.70;;;;;;5023742;28;20203;-71
2023/01/14 03:53:32;;;;;;;7.93;5.30;;;5.80;87.60;;;;;;5031526;28;20277;-69
2023/01/14 03:56:30;;;;;;;11.13;4.90;;;5.80;87.50;;;;;;5015925;28;20254;-69
2023/01/14 03:59:05;;;;;;;7.13;5.50;;;5.90;87.50;;;;;;5039353;28;20191;-69
2023/01/14 04:01:42;;;;;;;16.20;6.93;;;5.80;87.60;;;;;;5034118;28;20187;-69
2023/01/14 04:04:09;;;;;;;7.73;5.70;;;5.80;87.30;;;;;;5040094;28;20191;-69
2023/01/14 04:06:35;;;;;;;10.13;5.57;;;5.90;87.60;;;;;;5037962;28;20227;-69
2023/01/14 04:09:01;;;;;;;9.97;5.03;;;5.90;87.50;;;;;;5040714;28;20191;-69
2023/01/14 04:11:26;;;;;;;7.43;4.87;;;5.90;87.40;;;;;;5038266;28;20184;-69
2023/01/14 04:16:36;;;;;;;8.73;5.47;;;5.90;87.30;;;;;;5038730;28;20206;-69
2023/01/14 04:19:02;;;;;;;9.67;5.63;;;5.90;87.30;;;;;;5040712;28;20179;-68
2023/01/14 04:21:27;;;;;;;7.97;5.60;;;5.90;87.10;;;;;;5037739;28;20215;-69
2023/01/14 04:23:53;;;;;;;8.83;5.43;;;5.90;87.10;;;;;;5046746;28;20697;-69
2023/01/14 04:26:18;;;;;;;14.73;6.07;;;5.90;87.20;;;;;;5041064;28;20207;-69
2023/01/14 04:28:44;;;;;;;10.47;6.47;;;5.90;87.10;;;;;;5040026;28;20663;-69
2023/01/14 04:31:10;;;;;;;8.83;6.07;;;5.80;87.10;;;;;;5040492;28;20202;-70
2023/01/14 04:33:35;;;;;;;9.67;6.50;;;5.80;87.00;;;;;;5040552;28;20738;-69
2023/01/14 04:36:01;;;;;;;8.23;5.93;;;5.80;87.10;;;;;;5029911;28;20637;-69
2023/01/14 04:38:27;;;;;;;8.60;6.20;;;5.80;87.10;;;;;;5023797;28;20193;-69
2023/01/14 04:40:56;;;;;;;10.03;5.77;;;5.80;87.20;;;;;;5024965;28;20992;-68
2023/01/14 04:43:22;;;;;;;6.20;5.60;;;5.80;87.20;;;;;;5032448;28;20204;-70
2023/01/14 04:45:54;;;;;;;6.47;5.37;;;5.80;87.30;;;;;;5028173;28;20255;-69
2023/01/14 04:48:23;;;;;;;11.30;5.77;;;5.80;87.20;;;;;;5024203;28;20560;-69
2023/01/14 04:50:50;;;;;;;8.47;5.57;;;5.80;87.30;;;;;;5029123;28;20180;-69
2023/01/14 04:53:21;;;;;;;11.37;6.27;;;5.80;87.30;;;;;;5038023;28;20280;-69
2023/01/14 04:55:50;;;;;;;7.37;5.20;;;5.80;87.20;;;;;;5022950;28;20266;-69
2023/01/14 04:58:16;;;;;;;6.03;5.03;;;5.80;87.20;;;;;;5021418;28;20192;-69
2023/01/14 05:00:42;;;;;;;7.67;5.80;;;5.80;87.20;;;;;;5022296;28;20263;-69
2023/01/14 05:03:11;;;;;;;11.07;6.20;;;5.80;87.20;;;;;;5023531;28;20188;-69
2023/01/14 05:05:37;;;;;;;6.57;5.00;;;5.80;87.10;;;;;;5016309;28;20303;-69
2023/01/14 05:08:04;;;;;;;6.87;5.67;;;5.80;87.20;;;;;;5023713;28;20195;-69
2023/01/14 05:10:30;;;;;;;10.70;6.30;;;5.80;87.10;;;;;;5035669;28;20242;-69
2023/01/14 05:12:56;;;;;;;10.43;6.40;;;5.80;87.10;;;;;;5025541;28;20179;-69
2023/01/14 05:15:27;;;;;;;7.80;5.37;;;5.80;87.20;;;;;;5027212;28;20183;-68
2023/01/14 05:17:53;;;;;;;6.17;5.43;;;5.80;87.10;;;;;;5026553;28;20184;-71
2023/01/14 05:20:19;;;;;;;7.57;5.20;;;5.80;87.30;;;;;;5026959;28;20259;-70
2023/01/14 05:22:45;;;;;;;18.40;6.57;;;5.80;87.30;;;;;;5027352;28;20177;-69
2023/01/14 05:25:11;;;;;;;9.50;5.63;;;5.80;87.30;;;;;;5028235;28;20211;-70
2023/01/14 05:27:37;;;;;;;7.77;4.97;;;5.80;87.30;;;;;;5026454;28;20267;-72
2023/01/14 05:30:04;;;;;;;7.67;5.47;;;5.80;87.40;;;;;;5027772;28;20188;-70
2023/01/14 05:32:29;;;;;;;5.87;5.27;;;5.80;87.50;;;;;;5025973;28;20263;-69
2023/01/14 05:34:55;;;;;;;10.27;5.53;;;5.70;87.50;;;;;;5026664;28;20267;-69
2023/01/14 05:37:20;;;;;;;9.50;5.80;;;5.70;87.60;;;;;;5032949;28;20277;-70
2023/01/14 05:39:46;;;;;;;8.83;6.10;;;5.70;87.60;;;;;;5038151;28;20191;-71
2023/01/14 05:47:41;;;;;;;10.03;5.63;;;5.80;87.70;;;;;;5031667;28;20760;-70
2023/01/14 05:50:08;;;;;;;8.53;5.73;;;5.80;87.70;;;;;;5039282;28;20187;-71
2023/01/14 05:52:34;;;;;;;6.67;4.97;;;5.80;87.70;;;;;;5026837;28;20187;-70
2023/01/14 05:54:59;;;;;;;7.63;5.53;;;5.80;87.60;;;;;;5053493;28;20281;-70
2023/01/14 05:57:25;;;;;;;5.17;4.73;;;5.80;87.60;;;;;;5026818;28;20196;-70
2023/01/14 05:59:51;;;;;;;5.90;5.03;;;5.80;87.50;;;;;;5025157;28;20184;-70
2023/01/14 06:06:20;;;;;;;5.00;4.47;;;5.80;87.40;;;;;;5022721;28;20622;-70
2023/01/14 06:07:55;;;;;;;9.57;5.10;;;5.80;87.40;;;;;;5038132;28;20187;-71
2023/01/14 06:10:24;;;;;;;6.47;4.73;;;5.80;87.50;;;;;;5028131;28;20588;-71
2023/01/14 06:13:05;;;;;;;9.83;5.87;;;5.80;87.40;;;;;;5034800;28;20219;-69
2023/01/14 06:15:36;;;;;;;7.67;4.20;;;5.80;87.40;;;;;;5032518;28;21067;-70
2023/01/14 06:18:15;;;;;;;5.00;3.97;;;5.80;87.20;;;;;;5030799;28;20242;-69
2023/01/14 06:20:44;;;;;;;6.00;4.50;;;5.80;87.30;;;;;;5034436;28;20215;-70
2023/01/14 06:23:10;;;;;;;9.83;5.17;;;5.80;87.50;;;;;;5034036;28;20708;-71
2023/01/14 06:25:36;;;;;;;6.60;4.80;;;5.80;87.40;;;;;;5024391;28;20223;-71
2023/01/14 06:28:02;;;;;;;10.63;4.50;;;5.90;87.30;;;;;;5032970;28;20223;-71
2023/01/14 06:30:29;;;;;;;4.73;4.30;;;5.90;87.20;;;;;;5034146;28;20191;-70
2023/01/14 06:32:55;;;;;;;6.37;4.33;;;5.80;87.10;;;;;;5025636;28;20445;-69
2023/01/14 06:35:22;;;;;;;8.57;4.43;;;5.80;87.20;;;;;;5024915;28;20191;-70
2023/01/14 06:37:48;;;;;;;4.37;3.97;;;5.80;87.10;;;;;;5025012;28;20184;-70
2023/01/14 06:40:14;;;;;;;4.60;4.10;;;5.80;87.30;;;;;;5033202;28;20225;-70
2023/01/14 06:42:40;;;;;;;10.57;4.60;;;5.80;87.20;;;;;;5024917;28;20180;-71
2023/01/14 06:45:07;;;;;;;6.80;4.50;;;5.80;87.30;;;;;;5024572;28;20269;-70
2023/01/14 06:47:33;;;;;;;7.77;4.67;;;5.90;87.40;;;;;;5026135;28;20215;-69
2023/01/14 06:49:59;;;;;;;7.00;4.93;;;5.90;87.30;;;;;;5024261;28;20216;-69
2023/01/14 06:52:25;;;;;;;6.43;5.00;;;5.90;87.40;;;;;;5025222;28;20188;-70
2023/01/14 06:54:52;;;;;;;9.57;4.57;;;6.00;87.40;;;;;;5024902;28;20708;-73
2023/01/14 06:57:19;;;;;;;5.97;5.00;;;6.00;87.40;;;;;;5028674;28;20625;-71
2023/01/14 06:59:45;;;;;;;11.50;5.57;;;6.00;87.10;;;;;;5023480;28;20192;-71
2023/01/14 07:02:11;;;;;;;10.13;6.53;;;6.10;87.10;;;;;;5022707;28;20177;-73
2023/01/14 07:04:37;;;;;;;15.03;7.23;;;6.10;87.10;;;;;;5024063;28;20966;-71
2023/01/14 07:07:03;;;;;;;14.33;7.53;;;6.10;87.20;;;;;;5023925;28;20227;-72
2023/01/14 07:09:29;;;;;;;9.77;6.97;;;6.20;87.10;;;;;;5024122;28;20188;-72
2023/01/14 07:11:55;;;;;;;9.83;6.20;;;6.20;87.10;;;;;;5021784;28;20208;-72
2023/01/14 07:14:20;;;;;;;13.20;7.37;;;6.20;87.10;;;;;;5024519;28;20246;-73
2023/01/14 07:16:46;;;;;;;9.43;6.57;;;6.30;87.00;;;;;;5023507;28;20319;-69
2023/01/14 07:19:11;;;;;;;11.80;7.87;;;6.30;87.10;;;;;;5023242;28;20180;-71
2023/01/14 07:21:38;;;;;;;10.07;6.83;;;6.40;87.10;;;;;;5025309;28;20184;-72
2023/01/14 07:24:05;;;;;;;13.30;7.23;;;6.40;87.00;;;;;;5024288;28;20176;-72
2023/01/14 07:26:31;;;;;;;11.83;7.53;;;6.50;86.90;;;;;;5024905;28;20768;-71
2023/01/14 07:28:56;;;;;;;9.97;6.80;;;6.50;86.90;;;;;;5024069;28;20283;-71
2023/01/14 07:31:22;;;;;;;9.03;7.13;;;6.60;86.90;;;;;;5023289;28;20169;-72
2023/01/14 07:33:48;;;;;;;14.53;6.93;;;6.60;86.90;;;;;;5020558;28;20673;-70
2023/01/14 07:36:14;;;;;;;9.03;6.80;;;6.60;86.70;;;;;;5024366;28;20176;-70
2023/01/14 07:38:40;;;;;;;11.20;6.47;;;6.70;86.80;;;;;;5020811;28;20192;-73
2023/01/14 07:41:13;;;;;;;10.83;6.30;;;6.70;86.70;;;;;;5022493;28;20688;-71
2023/01/14 07:43:38;;;;;;;10.63;6.47;;;6.80;86.70;;;;;;5022217;28;20199;-70
2023/01/14 07:46:07;;;;;;;10.17;5.70;;;6.80;86.80;;;;;;5027667;28;20214;-70
2023/01/14 07:48:33;;;;;;;9.43;6.23;;;6.90;86.70;;;;;;5018242;28;20315;-71
2023/01/14 07:51:03;;;;;;;9.07;6.10;;;6.90;86.60;;;;;;5027195;28;21122;-72
2023/01/14 07:53:28;;;;;;;7.27;5.87;;;7.00;86.60;;;;;;5023542;28;20176;-72
2023/01/14 07:55:54;;;;;;;8.67;5.77;;;7.00;86.50;;;;;;5022502;28;20195;-70
2023/01/14 07:58:21;;;;;;;6.63;5.27;;;7.10;86.30;;;;;;5022991;28;20238;-70
2023/01/14 08:00:47;;;;;;;11.27;6.60;;;7.20;85.70;;;;;;5032499;28;20185;-71
2023/01/14 08:03:13;;;;;;;14.00;6.90;;;7.20;86.00;;;;;;5022302;28;20188;-71
2023/01/14 08:05:40;;;;;;;8.97;6.50;;;7.20;86.10;;;;;;5023048;28;20208;-71
2023/01/14 08:08:05;;;;;;;8.10;6.23;;;7.30;84.90;;;;;;5022478;28;20904;-71
2023/01/14 08:10:31;;;;;;;11.07;7.20;;;7.30;84.90;;;;;;5022715;28;20180;-71
2023/01/14 08:12:56;;;;;;;10.17;6.37;;;7.40;84.70;;;;;;5023001;28;20241;-71
2023/01/14 08:15:23;;;;;;;10.13;7.13;;;7.40;85.10;;;;;;5022914;28;20840;-71
2023/01/14 08:17:49;;;;;;;10.40;6.50;;;7.40;85.10;;;;;;5026731;28;20191;-70
2023/01/14 08:20:15;;;;;;;10.73;6.57;;;7.50;85.50;;;;;;5020535;28;20171;-70
2023/01/14 08:22:41;;;;;;;14.07;8.07;;;7.50;85.70;;;;;;5017313;28;20275;-72
2023/01/14 08:25:07;;;;;;;14.60;8.13;;;7.70;85.60;;;;;;5022858;28;20357;-70
2023/01/14 08:27:33;;;;;;;11.30;7.77;;;7.80;85.70;;;;;;5022049;28;20187;-70
2023/01/14 08:29:59;;;;;;;14.70;8.80;;;8.10;84.70;;;;;;5029108;28;20206;-70
2023/01/14 08:32:25;;;;;;;14.40;9.37;;;8.20;84.80;;;;;;5026682;28;20573;-70
2023/01/14 08:34:51;;;;;;;15.77;8.77;;;8.40;84.20;;;;;;5028176;28;20191;-69
2023/01/14 08:37:17;;;;;;;13.57;9.33;;;8.60;84.30;;;;;;5025671;28;20195;-70
2023/01/14 08:39:43;;;;;;;20.13;11.13;;;8.70;84.30;;;;;;5023348;28;20184;-69
2023/01/14 08:42:08;;;;;;;15.20;10.03;;;8.90;84.30;;;;;;5023007;28;20185;-70
2023/01/14 08:44:34;;;;;;;22.77;10.73;;;9.30;84.40;;;;;;5023611;28;20200;-71
2023/01/14 08:47:00;;;;;;;16.57;11.10;;;9.60;83.80;;;;;;5024947;28;20200;-70
2023/01/14 08:49:25;;;;;;;20.70;11.00;;;10.00;83.30;;;;;;5027644;28;20180;-70
2023/01/14 08:51:55;;;;;;;18.48;11.65;;;10.40;82.40;;;;;;5020053;28;20212;-71
2023/01/14 08:54:20;;;;;;;16.10;10.75;;;10.80;81.90;;;;;;5035726;28;20188;-70
2023/01/14 08:56:46;;;;;;;15.80;10.40;;;11.20;81.20;;;;;;5026069;28;20180;-70
2023/01/14 08:59:12;;;;;;;20.90;11.93;;;11.50;79.10;;;;;;5025472;28;20188;-71
2023/01/14 09:01:38;;;;;;;23.05;12.57;;;11.80;79.00;;;;;;5026833;28;20180;-73
2023/01/14 09:04:03;;;;;;;15.82;10.57;;;12.20;77.70;;;;;;5026023;28;20789;-71
2023/01/14 09:06:29;;;;;;;20.92;11.25;;;12.60;77.00;;;;;;5027106;28;20220;-70
2023/01/14 09:17:18;;;;;;;14.27;10.65;;;13.70;73.80;;;;;;5027445;28;20250;-69
2023/01/14 09:19:58;;;;;;;15.80;10.35;;;13.80;73.20;;;;;;5027346;28;20176;-69
2023/01/14 09:22:29;;;;;;;14.20;9.93;;;13.80;72.50;;;;;;5026655;28;20192;-71
2023/01/14 09:24:55;;;;;;;15.52;9.75;;;14.00;72.30;;;;;;5027953;28;21148;-70
2023/01/14 09:27:22;;;;;;;12.20;9.55;;;14.10;71.50;;;;;;5024296;28;20180;-70
2023/01/14 09:29:48;;;;;;;14.25;9.35;;;14.20;71.70;;;;;;5022961;28;20194;-70
2023/01/14 09:32:16;;;;;;;15.15;10.48;;;14.20;70.50;;;;;;5019798;28;20191;-70
2023/01/14 09:34:47;;;;;;;16.80;10.40;;;14.20;70.10;;;;;;5023487;28;20688;-71
2023/01/14 09:37:14;;;;;;;14.13;9.02;;;14.10;69.90;;;;;;5027791;28;20179;-72
2023/01/14 09:39:40;;;;;;;9.57;7.30;;;14.20;70.70;;;;;;5025746;28;20180;-71
2023/01/14 09:42:12;;;;;;;9.30;7.05;;;14.30;70.00;;;;;;5036084;28;20272;-71
2023/01/14 09:44:41;;;;;;;10.13;7.78;;;14.30;68.60;;;;;;5027108;28;20691;-72
2023/01/14 09:47:13;;;;;;;11.70;8.25;;;14.20;69.60;;;;;;5027155;28;20224;-72
2023/01/14 09:49:40;;;;;;;10.70;7.60;;;14.20;69.20;;;;;;5026376;28;20187;-72
2023/01/14 09:52:47;;;;;;;7.82;6.68;;;14.00;68.50;;;;;;5026920;28;20180;-73
2023/01/14 09:55:31;;;;;;;11.55;8.13;;;14.00;69.00;;;;;;5025916;28;20194;-74
2023/01/14 09:58:09;;;;;;;12.07;9.18;;;13.80;68.50;;;;;;5025080;28;20184;-76
2023/01/14 10:00:58;;;;;;;9.52;7.68;;;13.40;67.60;;;;;;5026625;28;20184;-77
2023/01/14 10:03:44;;;;;;;12.02;7.90;;;13.20;68.90;;;;;;5024182;28;20184;-75
2023/01/14 10:06:16;;;;;;;8.48;6.85;;;12.90;68.30;;;;;;5020974;28;20244;-77
2023/01/14 10:08:47;;;;;;;11.55;8.02;;;12.60;69.30;;;;;;5024596;28;20181;-75
2023/01/14 10:11:13;;;;;;;12.70;8.50;;;12.50;69.40;;;;;;5023799;28;20267;-75
2023/01/14 10:13:53;;;;;;;12.48;7.85;;;12.40;69.60;;;;;;5025472;28;20195;-75
2023/01/14 10:16:22;;;;;;;12.85;7.90;;;12.30;70.60;;;;;;5024139;28;20713;-75
2023/01/14 10:19:05;;;;;;;16.77;9.07;;;12.40;71.00;;;;;;5029981;28;20188;-72
2023/01/14 10:21:42;;;;;;;11.75;8.20;;;12.40;70.70;;;;;;5026594;28;20191;-72
2023/01/14 10:24:13;;;;;;;10.48;7.57;;;12.50;70.80;;;;;;5024665;28;20188;-76
2023/01/14 10:26:40;;;;;;;8.80;7.10;;;12.40;70.20;;;;;;5024312;28;20291;-74
2023/01/14 10:29:20;;;;;;;10.07;7.50;;;12.30;69.70;;;;;;5025031;28;20180;-73
2023/01/14 10:31:58;;;;;;;10.60;7.85;;;12.30;70.00;;;;;;5027577;28;20284;-72
2023/01/14 10:34:46;;;;;;;11.25;8.10;;;12.20;70.00;;;;;;5021480;28;21044;-72
2023/01/14 10:37:12;;;;;;;9.25;8.20;;;12.20;70.20;;;;;;5023033;28;20185;-74
2023/01/14 10:39:45;;;;;;;10.18;8.05;;;12.20;71.00;;;;;;5024694;28;20191;-75
2023/01/14 10:42:12;;;;;;;10.77;7.78;;;12.40;71.00;;;;;;5024025;28;20190;-75
2023/01/14 10:44:43;;;;;;;10.05;8.48;;;12.50;70.30;;;;;;5033313;28;20219;-75
2023/01/14 10:47:12;;;;;;;9.85;8.05;;;12.60;70.30;;;;;;5039935;28;20220;-76
2023/01/14 10:49:50;;;;;;;10.75;8.43;;;12.60;69.30;;;;;;5056752;28;20627;-78
2023/01/14 10:52:27;;;;;;;14.18;8.77;;;12.70;69.60;;;;;;5023114;28;20195;-74
2023/01/14 10:54:58;;;;;;;10.38;7.90;;;12.70;69.80;;;;;;5019531;28;20575;-74
2023/01/14 10:57:26;;;;;;;13.55;9.48;;;12.60;68.50;;;;;;5024297;28;20623;-74
2023/01/14 10:59:54;;;;;;;13.43;9.23;;;12.50;68.80;;;;;;5024448;28;20177;-73
2023/01/14 11:02:44;;;;;;;17.42;11.50;;;12.30;69.40;;;;;;5023574;28;20188;-74
2023/01/14 11:05:25;;;;;;;20.73;13.23;;;12.30;70.30;;;;;;5022859;28;20303;-74
2023/01/14 11:07:53;;;;;;;21.33;13.38;;;12.20;70.40;;;;;;5023825;28;20178;-74
2023/01/14 11:10:28;;;;;;;18.55;12.98;;;12.10;70.30;;;;;;5024885;28;20208;-74
2023/01/14 11:13:33;;;;;;;22.63;13.40;;;12.10;71.00;;;;;;5025225;28;20265;-74
2023/01/14 11:15:59;;;;;;;21.35;13.38;;;12.20;69.90;;;;;;5017632;28;20184;-74
2023/01/14 11:18:33;;;;;;;24.67;13.48;;;12.30;70.60;;;;;;5024491;28;20192;-73
2023/01/14 11:21:04;;;;;;;23.10;14.32;;;12.40;70.70;;;;;;5024652;28;20241;-74
2023/01/14 11:23:45;;;;;;;22.48;14.00;;;12.60;70.80;;;;;;5022211;28;20263;-74
2023/01/14 11:26:21;;;;;;;18.30;11.95;;;12.90;70.60;;;;;;5022805;28;20224;-74
2023/01/14 11:28:49;;;;;;;23.23;12.90;;;13.20;69.70;;;;;;5025172;28;20267;-74
2023/01/14 11:31:26;;;;;;;20.23;13.23;;;13.40;69.40;;;;;;5025068;28;20622;-77
2023/01/14 11:33:52;;;;;;;21.35;12.98;;;13.50;68.70;;;;;;5025406;28;20184;-74
2023/01/14 11:36:27;;;;;;;20.92;12.85;;;13.50;68.50;;;;;;5023555;28;20581;-75
2023/01/14 11:38:57;;;;;;;23.60;13.05;;;13.40;68.80;;;;;;5023427;28;20180;-75
2023/01/14 11:41:35;;;;;;;21.20;12.32;;;13.40;68.90;;;;;;5024284;28;21066;-74
2023/01/14 11:44:21;;;;;;;17.35;11.75;;;13.20;68.50;;;;;;5031239;28;20222;-75
2023/01/14 11:47:12;;;;;;;17.13;11.63;;;13.20;68.20;;;;;;5024650;28;20788;-74
2023/01/14 11:49:38;;;;;;;16.20;10.10;;;13.00;68.80;;;;;;5017141;28;20183;-74
2023/01/14 11:52:15;;;;;;;17.52;10.57;;;12.90;68.10;;;;;;5023906;28;20194;-74
2023/01/14 11:54:44;;;;;;;11.73;9.15;;;12.80;67.90;;;;;;5037063;28;20184;-74
2023/01/14 11:57:17;;;;;;;11.95;8.27;;;12.60;68.30;;;;;;5036024;28;20177;-73
2023/01/14 11:59:44;;;;;;;11.60;8.30;;;12.40;68.20;;;;;;5035238;28;20188;-74
2023/01/14 12:02:16;;;;;;;8.90;7.13;;;12.10;69.00;;;;;;5027543;28;20653;-74
2023/01/14 12:05:03;;;;;;;9.23;6.43;;;11.90;69.70;;;;;;5028130;28;20262;-74
2023/01/14 12:07:41;;;;;;;6.63;5.53;;;11.70;70.40;;;;;;5015481;28;20200;-74
2023/01/14 12:10:22;;;;;;;6.15;4.90;;;11.60;70.60;;;;;;5022200;28;20187;-74
2023/01/14 12:19:09;;;;;;;8.85;4.22;;;11.30;71.40;;;;;;5016550;28;20183;-73
2023/01/14 12:21:40;;;;;;;6.75;4.22;;;11.20;71.70;;;;;;5006480;28;20201;-74
2023/01/14 12:24:27;;;;;;;4.55;4.13;;;11.20;71.30;;;;;;5005326;28;20189;-73
2023/01/14 12:26:56;;;;;;;3.88;3.58;;;11.10;71.60;;;;;;5005024;28;20788;-73
2023/01/14 12:29:28;;;;;;;4.15;3.85;;;11.00;71.60;;;;;;5001711;28;20272;-73
2023/01/14 12:32:15;;;;;;;3.53;3.25;;;10.90;71.80;;;;;;5005827;28;20187;-73
2023/01/14 12:34:50;;;;;;;3.72;3.42;;;10.90;71.80;;;;;;5004533;28;20181;-74
2023/01/14 12:37:25;;;;;;;5.18;4.28;;;10.70;72.00;;;;;;5004592;28;20200;-74
2023/01/14 12:45:57;;;;;;;5.60;4.03;;;10.40;72.40;;;;;;5000099;28;20251;-74
2023/01/14 12:48:26;;;;;;;4.07;3.78;;;10.20;72.70;;;;;;5004904;28;20189;-75
2023/01/14 12:51:20;;;;;;;3.92;3.10;;;10.20;73.10;;;;;;5004733;28;20651;-75
2023/01/14 12:53:53;;;;;;;4.68;2.63;;;10.00;73.40;;;;;;4985073;28;20632;-75
2023/01/14 12:56:26;;;;;;;2.70;2.60;;;10.00;73.00;;;;;;4973968;28;20198;-75
2023/01/14 12:59:04;;;;;;;3.47;3.17;;;10.00;72.80;;;;;;4975027;28;20705;-74
2023/01/14 13:01:37;;;;;;;2.45;2.33;;;9.90;72.80;;;;;;4965632;28;20209;-75
2023/01/14 13:04:14;;;;;;;2.75;2.55;;;9.90;72.90;;;;;;4966104;28;20186;-75
2023/01/14 13:06:43;;;;;;;3.35;3.05;;;9.80;72.90;;;;;;4965250;28;20228;-75
2023/01/14 13:09:21;;;;;;;3.00;2.72;;;9.70;73.30;;;;;;4966186;28;20217;-75
2023/01/14 13:11:51;;;;;;;3.65;2.90;;;9.60;73.60;;;;;;4949893;28;20198;-74
2023/01/14 13:14:38;;;;;;;2.50;2.40;;;9.60;73.80;;;;;;4966007;28;20609;-75
2023/01/14 13:17:16;;;;;;;2.33;2.22;;;9.50;73.80;;;;;;4965803;28;20265;-75
2023/01/14 13:19:53;;;;;;;2.95;2.63;;;9.50;73.80;;;;;;4964761;28;20285;-74
2023/01/14 13:22:39;;;;;;;2.88;2.67;;;9.50;73.70;;;;;;4965663;28;20265;-75
2023/01/14 13:25:08;;;;;;;3.17;2.88;;;9.40;73.60;;;;;;4956785;28;20206;-74
2023/01/14 13:27:41;;;;;;;3.13;2.92;;;9.40;73.70;;;;;;4960098;28;20348;-75
2023/01/14 13:30:19;;;;;;;5.70;3.40;;;9.30;73.80;;;;;;4978154;28;20715;-75
2023/01/14 13:33:16;;;;;;;3.55;3.25;;;9.30;74.00;;;;;;5025890;28;20180;-75
2023/01/14 13:36:02;;;;;;;4.75;2.85;;;9.30;74.10;;;;;;5043201;28;20197;-73
2023/01/14 13:38:30;;;;;;;3.13;2.90;;;9.30;74.10;;;;;;5043793;28;20184;-76
2023/01/14 13:41:08;;;;;;;3.65;3.30;;;9.30;74.10;;;;;;5055323;28;20338;-76
2023/01/14 13:43:47;;;;;;;3.33;3.13;;;9.20;74.10;;;;;;5044496;28;20286;-73